Bokoshe, OK (74930)

5:00 PM CST on November 24, 2014 (GMT -0600)
Kerr | Change Station
CLOSE
Current Station
Airport
Location: Poteau,
Elevation: 453 ft
Nearby Weather Stations

Elev 453 ft 35.02 °N, 94.62 °W | Updated 25 minutes ago

Clear
Clear
56 °F
Feels Like 56 °F
N
12
Wind Variable Wind from West
Gusts 17 mph

Today
High -- | Low -- °F
--% Chance of Precip.
Yesterday
High -- | Low -- °F
Precip. -- in
7:02 AM 5:08 PM
Waxing Crescent, 7% visible
Pressure 29.98 in
Visibility 10.0 miles
Clouds Clear
Dew Point 18 °F
Humidity 23%
Rainfall 0.00 in
Snow Depth Not available.
UV 0 out of 12
Pollen 4.10 out of 12
Air Quality Not available.
Flu Activity Not available.
METAR KRKR 242235Z AUTO 27010G15KT 10SM CLR 14/M08 A2998 RMK AO2 T01351077

More Conditions Fewer Conditions

Pressure 29.98 in
Visibility 10.0 miles
Clouds Clear
Dew Point 18 °F
Humidity 23%
Rainfall 0.00 in
Snow Depth Not available.
UV 0 out of 12
Pollen 4.10 out of 12
Air Quality Not available.
Flu Activity Not available.
METAR KRKR 242235Z AUTO 27010G15KT 10SM CLR 14/M08 A2998 RMK AO2 T01351077

More Conditions Fewer Conditions

10-Day Weather Forecast

Almanac

Astronomy

Nov. 24, 2014 Rise Set
Actual Time
Civil Twilight
Nautical Twilight
Astronomical Twilight
Moon
Length of Visible Light
Length of Day
Tomorrow will be .
, % of the Moon is Illuminated

Today's Extremes

State Highs State Lows

Community

WunderPhotos

Upload Photos

1,773,434 photos uploaded!

WunderBlogs® & News

Nearby

Air Quality

  Air Quality AQ Index Pollutant
Not available.

Snow Depth

Station Depth Elevation

Earthquake Activity

City Distance Mag. Time & Date
Minimum magnitude displayed is 2.5.

Coastal Water Temperatures

Place Temperature

Nearby Weather Stations